sensor_id;sensor_type;location;lat;lon;timestamp;pressure;altitude;pressure_sealevel;temperature;humidity
12969;BME280;6549;53.128;8.182;2024-03-29T00:00:26;98971.06;;;8.35;100.00
12969;BME280;6549;53.128;8.182;2024-03-29T00:03:26;98978.03;;;8.40;100.00
12969;BME280;6549;53.128;8.182;2024-03-29T00:06:27;98978.81;;;8.40;100.00
12969;BME280;6549;53.128;8.182;2024-03-29T00:09:27;98973.34;;;8.37;100.00
12969;BME280;6549;53.128;8.182;2024-03-29T00:12:28;98977.75;;;8.31;100.00
12969;BME280;6549;53.128;8.182;2024-03-29T00:15:28;98969.88;;;8.36;100.00
12969;BME280;6549;53.128;8.182;2024-03-29T00:18:29;98970.22;;;8.38;100.00
12969;BME280;6549;53.128;8.182;2024-03-29T00:21:29;98973.41;;;8.33;100.00
12969;BME280;6549;53.128;8.182;2024-03-29T00:24:29;98978.19;;;8.26;100.00
12969;BME280;6549;53.128;8.182;2024-03-29T00:27:30;98975.13;;;8.20;100.00
12969;BME280;6549;53.128;8.182;2024-03-29T00:30:30;98972.72;;;8.26;100.00
12969;BME280;6549;53.128;8.182;2024-03-29T00:33:31;98973.97;;;8.21;100.00
12969;BME280;6549;53.128;8.182;2024-03-29T00:36:31;98978.25;;;8.22;100.00
12969;BME280;6549;53.128;8.182;2024-03-29T00:39:31;98977.47;;;8.22;100.00
12969;BME280;6549;53.128;8.182;2024-03-29T00:42:32;98967.31;;;8.22;100.00
12969;BME280;6549;53.128;8.182;2024-03-29T00:45:32;98981.38;;;8.21;100.00
12969;BME280;6549;53.128;8.182;2024-03-29T00:48:32;98970.81;;;8.23;100.00
12969;BME280;6549;53.128;8.182;2024-03-29T00:51:33;98984.13;;;8.21;100.00
12969;BME280;6549;53.128;8.182;2024-03-29T00:54:33;98982.28;;;8.14;100.00
12969;BME280;6549;53.128;8.182;2024-03-29T00:57:33;98983.06;;;8.11;100.00
12969;BME280;6549;53.128;8.182;2024-03-29T01:00:33;98985.03;;;8.10;100.00
12969;BME280;6549;53.128;8.182;2024-03-29T01:03:34;98990.81;;;8.16;100.00
12969;BME280;6549;53.128;8.182;2024-03-29T01:06:34;98993.56;;;8.16;100.00
12969;BME280;6549;53.128;8.182;2024-03-29T01:09:35;98987.00;;;8.10;100.00
12969;BME280;6549;53.128;8.182;2024-03-29T01:12:36;98995.19;;;8.10;100.00
12969;BME280;6549;53.128;8.182;2024-03-29T01:15:36;98991.28;;;8.11;100.00
12969;BME280;6549;53.128;8.182;2024-03-29T01:18:36;98995.69;;;8.05;100.00
12969;BME280;6549;53.128;8.182;2024-03-29T01:21:37;99005.97;;;7.94;100.00
12969;BME280;6549;53.128;8.182;2024-03-29T01:24:37;99004.38;;;7.96;100.00
12969;BME280;6549;53.128;8.182;2024-03-29T01:27:37;98996.84;;;8.04;100.00
12969;BME280;6549;53.128;8.182;2024-03-29T01:30:38;98994.97;;;8.01;100.00
12969;BME280;6549;53.128;8.182;2024-03-29T01:33:38;99003.41;;;8.10;100.00
12969;BME280;6549;53.128;8.182;2024-03-29T01:36:41;98995.69;;;8.01;100.00
12969;BME280;6549;53.128;8.182;2024-03-29T01:39:41;98992.94;;;8.05;100.00
12969;BME280;6549;53.128;8.182;2024-03-29T01:42:41;98994.91;;;8.04;100.00
12969;BME280;6549;53.128;8.182;2024-03-29T01:45:43;98988.53;;;8.11;100.00
12969;BME280;6549;53.128;8.182;2024-03-29T01:48:45;98999.59;;;8.04;100.00
12969;BME280;6549;53.128;8.182;2024-03-29T01:51:46;98987.16;;;7.99;100.00
12969;BME280;6549;53.128;8.182;2024-03-29T01:54:48;98999.16;;;8.05;100.00
12969;BME280;6549;53.128;8.182;2024-03-29T01:57:50;98996.41;;;8.09;100.00
12969;BME280;6549;53.128;8.182;2024-03-29T02:00:53;99009.31;;;8.08;100.00
12969;BME280;6549;53.128;8.182;2024-03-29T02:03:55;99000.00;;;8.02;100.00
12969;BME280;6549;53.128;8.182;2024-03-29T02:06:56;99000.78;;;8.03;100.00
12969;BME280;6549;53.128;8.182;2024-03-29T02:09:57;99001.50;;;8.07;100.00
12969;BME280;6549;53.128;8.182;2024-03-29T02:12:57;99004.25;;;8.07;100.00
12969;BME280;6549;53.128;8.182;2024-03-29T02:15:57;99006.19;;;8.06;100.00
12969;BME280;6549;53.128;8.182;2024-03-29T02:18:58;99011.38;;;8.01;100.00
12969;BME280;6549;53.128;8.182;2024-03-29T02:21:59;99013.94;;;8.11;100.00
12969;BME280;6549;53.128;8.182;2024-03-29T02:25:01;98998.75;;;8.07;100.00
12969;BME280;6549;53.128;8.182;2024-03-29T02:28:02;99013.59;;;8.09;100.00
12969;BME280;6549;53.128;8.182;2024-03-29T02:31:04;99001.16;;;8.05;100.00
12969;BME280;6549;53.128;8.182;2024-03-29T02:34:04;98995.56;;;8.12;100.00
12969;BME280;6549;53.128;8.182;2024-03-29T02:37:05;98987.31;;;8.16;100.00
12969;BME280;6549;53.128;8.182;2024-03-29T02:40:06;98984.75;;;8.05;100.00
12969;BME280;6549;53.128;8.182;2024-03-29T02:43:08;98989.38;;;8.08;100.00
12969;BME280;6549;53.128;8.182;2024-03-29T02:46:09;98980.78;;;8.06;100.00
12969;BME280;6549;53.128;8.182;2024-03-29T02:49:09;98973.03;;;8.04;100.00
12969;BME280;6549;53.128;8.182;2024-03-29T02:52:09;98967.56;;;8.04;100.00
12969;BME280;6549;53.128;8.182;2024-03-29T02:55:10;98978.53;;;8.01;100.00
12969;BME280;6549;53.128;8.182;2024-03-29T02:58:10;98984.38;;;8.03;100.00
12969;BME280;6549;53.128;8.182;2024-03-29T03:01:11;98973.81;;;8.05;100.00
12969;BME280;6549;53.128;8.182;2024-03-29T03:04:11;98959.69;;;8.06;100.00
12969;BME280;6549;53.128;8.182;2024-03-29T03:07:11;98971.72;;;8.12;100.00
12969;BME280;6549;53.128;8.182;2024-03-29T03:10:30;98962.84;;;8.05;100.00
12969;BME280;6549;53.128;8.182;2024-03-29T03:13:49;98981.28;;;8.01;100.00
12969;BME280;6549;53.128;8.182;2024-03-29T03:16:49;98983.25;;;7.97;100.00
12969;BME280;6549;53.128;8.182;2024-03-29T03:19:51;98978.16;;;7.99;100.00
12969;BME280;6549;53.128;8.182;2024-03-29T03:22:51;98989.94;;;7.96;100.00
12969;BME280;6549;53.128;8.182;2024-03-29T03:25:56;98982.41;;;8.03;100.00
12969;BME280;6549;53.128;8.182;2024-03-29T03:28:56;98975.88;;;7.94;100.00
12969;BME280;6549;53.128;8.182;2024-03-29T03:31:56;98987.19;;;7.96;100.00
12969;BME280;6549;53.128;8.182;2024-03-29T03:34:57;98975.88;;;7.94;100.00
12969;BME280;6549;53.128;8.182;2024-03-29T03:37:57;98979.91;;;7.86;100.00
12969;BME280;6549;53.128;8.182;2024-03-29T03:40:58;98982.25;;;7.84;100.00
12969;BME280;6549;53.128;8.182;2024-03-29T03:43:59;98973.97;;;7.91;100.00
12969;BME280;6549;53.128;8.182;2024-03-29T03:46:59;98975.22;;;7.86;100.00
12969;BME280;6549;53.128;8.182;2024-03-29T03:49:59;98972.53;;;7.79;100.00
12969;BME280;6549;53.128;8.182;2024-03-29T03:53:00;98984.91;;;7.91;100.00
12969;BME280;6549;53.128;8.182;2024-03-29T03:56:00;98977.25;;;7.79;100.00
12969;BME280;6549;53.128;8.182;2024-03-29T03:59:01;98965.09;;;7.83;100.00
12969;BME280;6549;53.128;8.182;2024-03-29T04:02:01;98963.03;;;7.91;100.00
12969;BME280;6549;53.128;8.182;2024-03-29T04:05:01;98962.38;;;7.83;100.00
12969;BME280;6549;53.128;8.182;2024-03-29T04:08:02;98966.91;;;7.93;100.00
12969;BME280;6549;53.128;8.182;2024-03-29T04:11:03;98969.97;;;7.99;100.00
12969;BME280;6549;53.128;8.182;2024-03-29T04:14:04;98963.75;;;7.95;100.00
12969;BME280;6549;53.128;8.182;2024-03-29T04:17:04;98970.91;;;7.85;100.00
12969;BME280;6549;53.128;8.182;2024-03-29T04:20:05;98982.47;;;8.00;100.00
12969;BME280;6549;53.128;8.182;2024-03-29T04:23:06;98981.69;;;7.99;100.00
12969;BME280;6549;53.128;8.182;2024-03-29T04:26:07;98991.38;;;8.04;100.00
12969;BME280;6549;53.128;8.182;2024-03-29T04:29:07;98977.34;;;8.02;100.00
12969;BME280;6549;53.128;8.182;2024-03-29T04:32:07;98983.25;;;8.00;100.00
12969;BME280;6549;53.128;8.182;2024-03-29T04:35:08;98980.84;;;8.02;100.00
12969;BME280;6549;53.128;8.182;2024-03-29T04:38:08;98983.97;;;8.04;100.00
12969;BME280;6549;53.128;8.182;2024-03-29T04:41:09;98981.28;;;8.01;100.00
12969;BME280;6549;53.128;8.182;2024-03-29T04:44:11;98971.34;;;8.10;100.00
12969;BME280;6549;53.128;8.182;2024-03-29T04:47:13;98988.59;;;8.07;100.00
12969;BME280;6549;53.128;8.182;2024-03-29T04:50:14;98996.41;;;8.09;100.00
12969;BME280;6549;53.128;8.182;2024-03-29T04:53:14;98988.53;;;8.11;100.00
12969;BME280;6549;53.128;8.182;2024-03-29T04:56:16;98997.13;;;8.13;100.00
12969;BME280;6549;53.128;8.182;2024-03-29T04:59:17;98996.69;;;8.14;100.00
12969;BME280;6549;53.128;8.182;2024-03-29T05:02:18;99004.06;;;8.21;100.00
12969;BME280;6549;53.128;8.182;2024-03-29T05:05:18;99008.34;;;8.22;100.00
12969;BME280;6549;53.128;8.182;2024-03-29T05:08:19;99014.91;;;8.32;100.00
12969;BME280;6549;53.128;8.182;2024-03-29T05:11:20;99016.84;;;8.28;100.00
12969;BME280;6549;53.128;8.182;2024-03-29T05:14:21;99013.75;;;8.29;100.00
12969;BME280;6549;53.128;8.182;2024-03-29T05:17:22;99013.34;;;8.31;100.00
12969;BME280;6549;53.128;8.182;2024-03-29T05:20:25;99031.31;;;8.28;100.00
12969;BME280;6549;53.128;8.182;2024-03-29T05:23:25;99028.78;;;8.44;100.00
12969;BME280;6549;53.128;8.182;2024-03-29T05:26:26;99022.16;;;8.42;100.00
12969;BME280;6549;53.128;8.182;2024-03-29T05:29:26;99023.44;;;8.34;100.00
12969;BME280;6549;53.128;8.182;2024-03-29T05:32:26;99039.03;;;8.40;100.00
12969;BME280;6549;53.128;8.182;2024-03-29T05:35:28;99026.84;;;8.41;100.00
12969;BME280;6549;53.128;8.182;2024-03-29T05:38:29;99035.84;;;8.42;100.00
12969;BME280;6549;53.128;8.182;2024-03-29T05:41:29;99035.06;;;8.41;100.00
12969;BME280;6549;53.128;8.182;2024-03-29T05:44:31;99043.66;;;8.43;100.00
12969;BME280;6549;53.128;8.182;2024-03-29T05:47:31;99060.41;;;8.49;100.00
12969;BME280;6549;53.128;8.182;2024-03-29T05:50:32;99068.44;;;8.60;100.00
12969;BME280;6549;53.128;8.182;2024-03-29T05:53:33;99066.09;;;8.62;100.00
12969;BME280;6549;53.128;8.182;2024-03-29T05:56:33;99079.41;;;8.60;100.00
12969;BME280;6549;53.128;8.182;2024-03-29T05:59:34;99083.25;;;8.66;100.00
12969;BME280;6549;53.128;8.182;2024-03-29T06:02:35;99083.06;;;8.76;100.00
12969;BME280;6549;53.128;8.182;2024-03-29T06:05:35;99074.09;;;8.76;100.00
12969;BME280;6549;53.128;8.182;2024-03-29T06:08:35;99076.34;;;8.81;100.00
12969;BME280;6549;53.128;8.182;2024-03-29T06:11:36;99088.19;;;8.74;100.00
12969;BME280;6549;53.128;8.182;2024-03-29T06:14:36;99083.84;;;8.77;100.00
12969;BME280;6549;53.128;8.182;2024-03-29T06:17:55;99080.34;;;8.76;100.00
12969;BME280;6549;53.128;8.182;2024-03-29T06:20:56;99093.56;;;8.81;100.00
12969;BME280;6549;53.128;8.182;2024-03-29T06:23:56;99090.44;;;8.83;100.00
12969;BME280;6549;53.128;8.182;2024-03-29T06:26:56;99102.47;;;8.89;100.00
12969;BME280;6549;53.128;8.182;2024-03-29T06:29:57;99100.91;;;8.88;100.00
12969;BME280;6549;53.128;8.182;2024-03-29T06:32:57;99119.72;;;8.86;100.00
12969;BME280;6549;53.128;8.182;2024-03-29T06:35:57;99107.44;;;8.71;100.00
12969;BME280;6549;53.128;8.182;2024-03-29T06:38:58;99122.16;;;8.80;100.00
12969;BME280;6549;53.128;8.182;2024-03-29T06:41:58;99115.44;;;8.58;100.00
12969;BME280;6549;53.128;8.182;2024-03-29T06:44:58;99127.50;;;8.61;100.00
12969;BME280;6549;53.128;8.182;2024-03-29T06:47:59;99132.97;;;8.61;100.00
12969;BME280;6549;53.128;8.182;2024-03-29T06:51:00;99129.19;;;8.51;100.00
12969;BME280;6549;53.128;8.182;2024-03-29T06:54:00;99147.13;;;8.55;100.00
12969;BME280;6549;53.128;8.182;2024-03-29T06:57:01;99149.91;;;8.52;100.00
12969;BME280;6549;53.128;8.182;2024-03-29T07:00:02;99147.56;;;8.50;100.00
12969;BME280;6549;53.128;8.182;2024-03-29T07:03:03;99152.13;;;8.30;100.00
12969;BME280;6549;53.128;8.182;2024-03-29T07:06:04;99154.72;;;8.44;100.00
12969;BME280;6549;53.128;8.182;2024-03-29T07:09:04;99174.44;;;8.25;100.00
12969;BME280;6549;53.128;8.182;2024-03-29T07:12:05;99179.22;;;8.18;100.00
12969;BME280;6549;53.128;8.182;2024-03-29T07:15:06;99181.28;;;8.06;100.00
12969;BME280;6549;53.128;8.182;2024-03-29T07:18:10;99174.59;;;8.11;100.00
12969;BME280;6549;53.128;8.182;2024-03-29T07:21:10;99174.72;;;8.00;100.00
12969;BME280;6549;53.128;8.182;2024-03-29T07:24:11;99187.38;;;8.21;100.00
12969;BME280;6549;53.128;8.182;2024-03-29T07:27:11;99178.50;;;8.10;100.00
12969;BME280;6549;53.128;8.182;2024-03-29T07:30:15;99170.59;;;8.19;100.00
12969;BME280;6549;53.128;8.182;2024-03-29T07:33:16;99175.66;;;8.21;100.00
12969;BME280;6549;53.128;8.182;2024-03-29T07:36:16;99181.63;;;8.12;100.00
12969;BME280;6549;53.128;8.182;2024-03-29T07:39:17;99181.09;;;8.24;100.00
12969;BME280;6549;53.128;8.182;2024-03-29T07:42:17;99176.06;;;8.19;100.00
12969;BME280;6549;53.128;8.182;2024-03-29T07:45:19;99172.53;;;8.22;100.00
12969;BME280;6549;53.128;8.182;2024-03-29T07:48:19;99168.91;;;8.29;100.00
12969;BME280;6549;53.128;8.182;2024-03-29T07:51:20;99172.88;;;8.24;100.00
12969;BME280;6549;53.128;8.182;2024-03-29T07:54:20;99169.69;;;8.33;100.00
12969;BME280;6549;53.128;8.182;2024-03-29T07:57:20;99161.41;;;8.40;100.00
12969;BME280;6549;53.128;8.182;2024-03-29T08:00:21;99151.47;;;8.53;100.00
12969;BME280;6549;53.128;8.182;2024-03-29T08:03:21;99137.34;;;8.54;100.00
12969;BME280;6549;53.128;8.182;2024-03-29T08:06:22;99130.66;;;8.59;100.00
12969;BME280;6549;53.128;8.182;2024-03-29T08:09:23;99128.63;;;8.63;100.00
12969;BME280;6549;53.128;8.182;2024-03-29T08:12:23;99131.56;;;8.49;100.00
12969;BME280;6549;53.128;8.182;2024-03-29T08:15:24;99133.38;;;8.63;100.00
12969;BME280;6549;53.128;8.182;2024-03-29T08:18:24;99149.06;;;8.85;100.00
12969;BME280;6549;53.128;8.182;2024-03-29T08:21:25;99152.91;;;8.91;100.00
12969;BME280;6549;53.128;8.182;2024-03-29T08:24:28;99139.78;;;8.79;100.00
12969;BME280;6549;53.128;8.182;2024-03-29T08:27:28;99154.88;;;8.91;100.00
12969;BME280;6549;53.128;8.182;2024-03-29T08:30:28;99137.84;;;9.03;100.00
12969;BME280;6549;53.128;8.182;2024-03-29T08:33:35;99148.72;;;9.10;100.00
12969;BME280;6549;53.128;8.182;2024-03-29T08:36:39;99141.81;;;9.02;100.00
12969;BME280;6549;53.128;8.182;2024-03-29T08:39:40;99150.84;;;8.99;100.00
12969;BME280;6549;53.128;8.182;2024-03-29T08:42:40;99151.66;;;8.96;100.00
12969;BME280;6549;53.128;8.182;2024-03-29T08:45:40;99138.13;;;9.12;100.00
12969;BME280;6549;53.128;8.182;2024-03-29T08:48:41;99143.56;;;9.16;100.00
12969;BME280;6549;53.128;8.182;2024-03-29T08:51:43;99155.50;;;9.02;100.00
12969;BME280;6549;53.128;8.182;2024-03-29T08:54:43;99162.44;;;9.10;100.00
12969;BME280;6549;53.128;8.182;2024-03-29T08:57:44;99149.03;;;9.16;100.00
12969;BME280;6549;53.128;8.182;2024-03-29T09:00:52;99156.78;;;9.21;100.00
12969;BME280;6549;53.128;8.182;2024-03-29T09:03:53;99145.53;;;9.15;100.00
12969;BME280;6549;53.128;8.182;2024-03-29T09:06:53;99141.47;;;9.23;100.00
12969;BME280;6549;53.128;8.182;2024-03-29T09:09:54;99152.91;;;9.18;100.00
12969;BME280;6549;53.128;8.182;2024-03-29T09:12:54;99151.25;;;9.24;100.00
12969;BME280;6549;53.128;8.182;2024-03-29T09:15:55;99138.75;;;9.23;100.00
12969;BME280;6549;53.128;8.182;2024-03-29T09:18:55;99156.75;;;9.24;100.00
12969;BME280;6549;53.128;8.182;2024-03-29T09:21:56;99164.59;;;9.22;100.00
12969;BME280;6549;53.128;8.182;2024-03-29T09:24:56;99153.41;;;9.36;100.00
12969;BME280;6549;53.128;8.182;2024-03-29T09:27:56;99149.53;;;9.57;100.00
12969;BME280;6549;53.128;8.182;2024-03-29T09:30:58;99131.50;;;9.60;100.00
12969;BME280;6549;53.128;8.182;2024-03-29T09:34:01;99126.91;;;9.76;100.00
12969;BME280;6549;53.128;8.182;2024-03-29T09:37:01;99131.47;;;9.83;100.00
12969;BME280;6549;53.128;8.182;2024-03-29T09:40:03;99132.22;;;10.07;100.00
12969;BME280;6549;53.128;8.182;2024-03-29T09:43:04;99141.94;;;10.11;100.00
12969;BME280;6549;53.128;8.182;2024-03-29T09:46:06;99150.66;;;9.83;100.00
12969;BME280;6549;53.128;8.182;2024-03-29T09:49:08;99140.19;;;9.78;100.00
12969;BME280;6549;53.128;8.182;2024-03-29T09:52:08;99123.75;;;9.98;100.00
12969;BME280;6549;53.128;8.182;2024-03-29T09:55:09;99128.41;;;10.01;100.00
12969;BME280;6549;53.128;8.182;2024-03-29T09:58:10;99120.72;;;9.92;100.00
12969;BME280;6549;53.128;8.182;2024-03-29T10:01:10;99128.13;;;9.95;100.00
12969;BME280;6549;53.128;8.182;2024-03-29T10:04:11;99130.56;;;9.89;100.00
12969;BME280;6549;53.128;8.182;2024-03-29T10:07:14;99123.13;;;9.90;100.00
12969;BME280;6549;53.128;8.182;2024-03-29T10:10:15;99124.16;;;9.96;100.00
12969;BME280;6549;53.128;8.182;2024-03-29T10:13:15;99126.09;;;9.99;100.00
12969;BME280;6549;53.128;8.182;2024-03-29T10:16:19;99137.22;;;10.12;100.00
12969;BME280;6549;53.128;8.182;2024-03-29T10:19:21;99134.78;;;10.17;100.00
12969;BME280;6549;53.128;8.182;2024-03-29T10:22:22;99136.31;;;10.18;100.00
12969;BME280;6549;53.128;8.182;2024-03-29T10:25:22;99120.28;;;10.36;100.00
12969;BME280;6549;53.128;8.182;2024-03-29T10:28:23;99110.94;;;10.70;100.00
12969;BME280;6549;53.128;8.182;2024-03-29T10:31:24;99115.28;;;11.03;100.00
12969;BME280;6549;53.128;8.182;2024-03-29T10:34:24;99116.00;;;11.23;100.00
12969;BME280;6549;53.128;8.182;2024-03-29T10:37:25;99119.53;;;11.73;100.00
12969;BME280;6549;53.128;8.182;2024-03-29T10:40:30;99117.88;;;11.75;100.00
12969;BME280;6549;53.128;8.182;2024-03-29T10:43:30;99132.38;;;11.92;100.00
12969;BME280;6549;53.128;8.182;2024-03-29T10:46:31;99133.88;;;11.80;100.00
12969;BME280;6549;53.128;8.182;2024-03-29T10:49:33;99137.50;;;11.77;100.00
12969;BME280;6549;53.128;8.182;2024-03-29T10:52:35;99133.00;;;11.51;100.00
12969;BME280;6549;53.128;8.182;2024-03-29T10:55:37;99129.75;;;11.40;100.00
12969;BME280;6549;53.128;8.182;2024-03-29T10:58:40;99135.44;;;11.49;100.00
12969;BME280;6549;53.128;8.182;2024-03-29T11:01:51;99135.75;;;11.51;100.00
12969;BME280;6549;53.128;8.182;2024-03-29T11:04:52;99143.25;;;11.34;100.00
12969;BME280;6549;53.128;8.182;2024-03-29T11:07:53;99146.41;;;11.65;100.00
12969;BME280;6549;53.128;8.182;2024-03-29T11:10:56;99128.00;;;11.94;100.00
12969;BME280;6549;53.128;8.182;2024-03-29T11:14:05;99127.72;;;12.05;100.00
12969;BME280;6549;53.128;8.182;2024-03-29T11:17:08;99132.63;;;12.26;100.00
12969;BME280;6549;53.128;8.182;2024-03-29T11:20:10;99112.28;;;11.95;100.00
12969;BME280;6549;53.128;8.182;2024-03-29T11:23:12;99117.84;;;11.91;100.00
12969;BME280;6549;53.128;8.182;2024-03-29T11:26:14;99128.81;;;12.36;100.00
12969;BME280;6549;53.128;8.182;2024-03-29T11:29:22;99137.00;;;12.11;100.00
12969;BME280;6549;53.128;8.182;2024-03-29T11:32:40;99141.66;;;12.27;100.00
12969;BME280;6549;53.128;8.182;2024-03-29T11:35:41;99141.81;;;12.07;100.00
12969;BME280;6549;53.128;8.182;2024-03-29T11:38:42;99123.03;;;12.18;100.00
12969;BME280;6549;53.128;8.182;2024-03-29T11:41:46;99132.53;;;12.71;100.00
12969;BME280;6549;53.128;8.182;2024-03-29T11:44:47;99133.97;;;12.88;100.00
12969;BME280;6549;53.128;8.182;2024-03-29T11:47:48;99136.84;;;12.85;100.00
12969;BME280;6549;53.128;8.182;2024-03-29T11:50:51;99144.66;;;12.61;100.00
12969;BME280;6549;53.128;8.182;2024-03-29T11:53:52;99152.91;;;12.61;100.00
12969;BME280;6549;53.128;8.182;2024-03-29T11:56:53;99146.94;;;12.63;100.00
12969;BME280;6549;53.128;8.182;2024-03-29T11:59:53;99156.78;;;12.64;100.00
12969;BME280;6549;53.128;8.182;2024-03-29T12:02:53;99169.31;;;12.52;100.00
12969;BME280;6549;53.128;8.182;2024-03-29T12:05:55;99165.53;;;12.87;100.00
12969;BME280;6549;53.128;8.182;2024-03-29T12:08:58;99156.25;;;13.06;100.00
12969;BME280;6549;53.128;8.182;2024-03-29T12:11:59;99160.81;;;13.26;100.00
12969;BME280;6549;53.128;8.182;2024-03-29T12:15:05;99177.91;;;13.59;100.00
12969;BME280;6549;53.128;8.182;2024-03-29T12:18:06;99164.13;;;13.46;100.00
12969;BME280;6549;53.128;8.182;2024-03-29T12:21:06;99155.72;;;13.62;100.00
12969;BME280;6549;53.128;8.182;2024-03-29T12:24:07;99151.03;;;13.84;100.00
12969;BME280;6549;53.128;8.182;2024-03-29T12:27:08;99162.59;;;13.45;100.00
12969;BME280;6549;53.128;8.182;2024-03-29T12:30:09;99163.31;;;13.71;100.00
12969;BME280;6549;53.128;8.182;2024-03-29T12:36:16;99164.44;;;13.61;100.00
12969;BME280;6549;53.128;8.182;2024-03-29T12:39:19;99184.19;;;13.59;100.00
12969;BME280;6549;53.128;8.182;2024-03-29T12:42:19;99182.34;;;13.43;100.00
12969;BME280;6549;53.128;8.182;2024-03-29T12:45:20;99178.66;;;13.59;100.00
12969;BME280;6549;53.128;8.182;2024-03-29T12:48:22;99171.94;;;13.60;100.00
12969;BME280;6549;53.128;8.182;2024-03-29T12:51:27;99165.88;;;13.65;100.00
12969;BME280;6549;53.128;8.182;2024-03-29T12:54:29;99162.59;;;13.20;100.00
12969;BME280;6549;53.128;8.182;2024-03-29T12:57:31;99167.44;;;13.28;100.00
12969;BME280;6549;53.128;8.182;2024-03-29T13:00:31;99174.75;;;13.22;100.00
12969;BME280;6549;53.128;8.182;2024-03-29T13:03:31;99187.53;;;13.16;100.00
12969;BME280;6549;53.128;8.182;2024-03-29T13:06:32;99182.28;;;13.05;100.00
12969;BME280;6549;53.128;8.182;2024-03-29T13:09:33;99188.38;;;13.00;100.00
12969;BME280;6549;53.128;8.182;2024-03-29T13:12:33;99207.09;;;12.93;100.00
12969;BME280;6549;53.128;8.182;2024-03-29T13:15:35;99213.25;;;12.84;100.00
12969;BME280;6549;53.128;8.182;2024-03-29T13:18:36;99213.78;;;12.79;100.00
12969;BME280;6549;53.128;8.182;2024-03-29T13:21:36;99217.56;;;12.85;100.00
12969;BME280;6549;53.128;8.182;2024-03-29T13:24:37;99222.13;;;12.92;100.00
12969;BME280;6549;53.128;8.182;2024-03-29T13:27:38;99228.66;;;13.11;100.00
12969;BME280;6549;53.128;8.182;2024-03-29T13:30:38;99230.44;;;13.30;100.00
12969;BME280;6549;53.128;8.182;2024-03-29T13:33:43;99224.16;;;13.29;100.00
12969;BME280;6549;53.128;8.182;2024-03-29T13:36:43;99215.78;;;13.33;100.00
12969;BME280;6549;53.128;8.182;2024-03-29T13:39:45;99219.56;;;13.10;100.00
12969;BME280;6549;53.128;8.182;2024-03-29T13:42:46;99228.50;;;13.01;100.00
12969;BME280;6549;53.128;8.182;2024-03-29T13:45:46;99230.41;;;13.04;100.00
12969;BME280;6549;53.128;8.182;2024-03-29T13:48:47;99227.47;;;13.24;100.00
12969;BME280;6549;53.128;8.182;2024-03-29T13:51:48;99218.53;;;13.20;100.00
12969;BME280;6549;53.128;8.182;2024-03-29T13:54:49;99209.59;;;13.29;100.00
12969;BME280;6549;53.128;8.182;2024-03-29T13:57:50;99204.97;;;13.38;100.00
12969;BME280;6549;53.128;8.182;2024-03-29T14:00:50;99207.06;;;13.34;100.00
12969;BME280;6549;53.128;8.182;2024-03-29T14:03:54;99205.75;;;13.26;100.00
12969;BME280;6549;53.128;8.182;2024-03-29T14:06:55;99212.69;;;13.18;100.00
12969;BME280;6549;53.128;8.182;2024-03-29T14:09:56;99214.34;;;13.28;100.00
12969;BME280;6549;53.128;8.182;2024-03-29T14:12:56;99225.28;;;13.32;100.00
12969;BME280;6549;53.128;8.182;2024-03-29T14:15:57;99220.84;;;13.47;100.00
12969;BME280;6549;53.128;8.182;2024-03-29T14:18:59;99202.41;;;13.57;100.00
12969;BME280;6549;53.128;8.182;2024-03-29T14:22:03;99210.03;;;13.53;100.00
12969;BME280;6549;53.128;8.182;2024-03-29T14:25:04;99206.19;;;13.63;100.00
12969;BME280;6549;53.128;8.182;2024-03-29T14:28:05;99205.97;;;14.04;100.00
12969;BME280;6549;53.128;8.182;2024-03-29T14:31:05;99213.41;;;14.42;100.00
12969;BME280;6549;53.128;8.182;2024-03-29T14:34:06;99205.97;;;14.51;100.00
12969;BME280;6549;53.128;8.182;2024-03-29T14:37:06;99218.09;;;14.75;100.00
12969;BME280;6549;53.128;8.182;2024-03-29T14:40:09;99223.19;;;14.77;100.00
12969;BME280;6549;53.128;8.182;2024-03-29T14:43:09;99223.00;;;14.71;100.00
12969;BME280;6549;53.128;8.182;2024-03-29T14:46:10;99228.84;;;14.73;100.00
12969;BME280;6549;53.128;8.182;2024-03-29T14:49:10;99230.31;;;14.87;100.00
12969;BME280;6549;53.128;8.182;2024-03-29T14:52:14;99244.47;;;14.67;100.00
12969;BME280;6549;53.128;8.182;2024-03-29T14:55:14;99237.97;;;14.61;100.00
12969;BME280;6549;53.128;8.182;2024-03-29T14:58:15;99254.69;;;14.58;100.00
12969;BME280;6549;53.128;8.182;2024-03-29T15:01:15;99254.38;;;14.56;100.00
12969;BME280;6549;53.128;8.182;2024-03-29T15:04:16;99244.28;;;14.62;100.00
12969;BME280;6549;53.128;8.182;2024-03-29T15:07:16;99247.28;;;14.55;100.00
12969;BME280;6549;53.128;8.182;2024-03-29T15:10:17;99247.94;;;14.59;100.00
12969;BME280;6549;53.128;8.182;2024-03-29T15:13:19;99256.31;;;14.90;100.00
12969;BME280;6549;53.128;8.182;2024-03-29T15:16:19;99256.56;;;15.04;100.00
12969;BME280;6549;53.128;8.182;2024-03-29T15:19:21;99268.78;;;15.16;100.00
12969;BME280;6549;53.128;8.182;2024-03-29T15:22:21;99268.91;;;15.12;100.00
12969;BME280;6549;53.128;8.182;2024-03-29T15:25:22;99269.72;;;14.78;100.00
12969;BME280;6549;53.128;8.182;2024-03-29T15:28:25;99263.28;;;15.25;98.59
12969;BME280;6549;53.128;8.182;2024-03-29T15:31:44;99268.25;;;15.30;99.21
12969;BME280;6549;53.128;8.182;2024-03-29T15:34:44;99270.13;;;15.42;97.63
12969;BME280;6549;53.128;8.182;2024-03-29T15:37:45;99261.97;;;15.39;93.27
12969;BME280;6549;53.128;8.182;2024-03-29T15:40:53;99247.28;;;14.98;98.77
12969;BME280;6549;53.128;8.182;2024-03-29T15:43:53;99256.19;;;14.71;97.84
12969;BME280;6549;53.128;8.182;2024-03-29T15:46:55;99259.84;;;14.68;100.00
12969;BME280;6549;53.128;8.182;2024-03-29T15:49:55;99263.13;;;14.76;100.00
12969;BME280;6549;53.128;8.182;2024-03-29T15:52:55;99272.97;;;14.77;100.00
12969;BME280;6549;53.128;8.182;2024-03-29T15:55:56;99285.69;;;14.74;100.00
12969;BME280;6549;53.128;8.182;2024-03-29T15:58:58;99284.25;;;14.70;100.00
12969;BME280;6549;53.128;8.182;2024-03-29T16:01:59;99276.22;;;14.63;100.00
12969;BME280;6549;53.128;8.182;2024-03-29T16:05:01;99282.75;;;14.56;100.00
12969;BME280;6549;53.128;8.182;2024-03-29T16:08:01;99284.53;;;14.63;100.00
12969;BME280;6549;53.128;8.182;2024-03-29T16:11:08;99283.25;;;14.76;100.00